Vila-seca, Spain
Current Conditions -  °F | °C
As of 10:00 PM on Thursday 20 Nov 2014 (Local Time) from LERS Reporting Station
Broken Clouds Broken Clouds  
Wind Chill: 59°   Ceiling: 1800
Heat Index: 59°   Visibility: 6mi
Dew Point: 55°   Wind: 3mph
Humidity: 88%   Direction: 20°NNE
Pressure: 30.15"   Gusts: NA
Location:  41.12°N, 1.15°E
Report Text: LERS 202100Z 02003KT 9999 BKN018 15/13 Q1021
Loading
Personal Weather Stations






























Interactive Weather Map New forecast layout! Learn more

10-Day Weather Forecast

Advertisements
Track Severe Weather on mobile